createdAt,value
2022-08-22T00:00:05.001Z,1015.36
2022-08-22T00:00:14.419Z,1015.37
2022-08-22T00:00:23.836Z,1015.33
2022-08-22T00:00:33.276Z,1015.33
2022-08-22T00:00:42.907Z,1015.38
2022-08-22T00:00:52.101Z,1015.40
2022-08-22T00:01:01.517Z,1015.47
2022-08-22T00:01:10.959Z,1015.42
2022-08-22T00:01:20.333Z,1015.44
2022-08-22T00:01:29.746Z,1015.40
2022-08-22T00:01:39.156Z,1015.43
2022-08-22T00:01:48.581Z,1015.41
2022-08-22T00:01:58.063Z,1015.42
2022-08-22T00:02:09.060Z,1015.41
2022-08-22T00:02:16.962Z,1015.45
2022-08-22T00:02:35.864Z,1015.42
2022-08-22T00:02:43.675Z,1014.98
2022-08-22T00:02:44.826Z,1014.41
2022-08-22T00:02:47.029Z,1015.09
2022-08-22T00:02:47.572Z,1014.40
2022-08-22T00:02:48.935Z,1014.79
2022-08-22T00:02:49.120Z,1014.86
2022-08-22T00:02:54.059Z,1014.89
2022-08-22T00:02:54.358Z,1015.01
2022-08-22T00:02:55.766Z,1015.39
2022-08-22T00:02:57.375Z,1015.15
2022-08-22T00:02:58.170Z,1015.08
2022-08-22T00:02:58.277Z,1015.02
2022-08-22T00:02:58.682Z,1015.12
2022-08-22T00:02:59.456Z,1015.38
2022-08-22T00:02:59.525Z,1015.00
2022-08-22T00:02:59.617Z,1014.75
2022-08-22T00:02:59.618Z,1015.07
2022-08-22T00:02:59.810Z,1015.09
2022-08-22T00:03:00.473Z,1014.78
2022-08-22T00:03:02.258Z,1014.75
2022-08-22T00:03:02.493Z,1014.58
2022-08-22T00:03:04.031Z,1015.07
2022-08-22T00:03:04.341Z,1014.58
2022-08-22T00:03:04.341Z,1015.10
2022-08-22T00:03:07.953Z,1015.10
2022-08-22T00:03:08.827Z,1015.39
2022-08-22T00:03:10.013Z,1015.29
2022-08-22T00:03:10.286Z,1015.15
2022-08-22T00:03:11.174Z,1015.12
2022-08-22T00:03:11.928Z,1014.39
2022-08-22T00:03:12.111Z,1015.28
2022-08-22T00:03:12.287Z,1015.10
2022-08-22T00:03:12.456Z,1014.41
2022-08-22T00:03:12.560Z,1015.35
2022-08-22T00:03:15.702Z,1015.32
2022-08-22T00:03:18.709Z,1015.41
2022-08-22T00:03:23.136Z,1015.35
2022-08-22T00:03:32.051Z,1015.36
2022-08-22T00:03:32.570Z,1015.43
2022-08-22T00:03:41.972Z,1015.37
2022-08-22T00:03:51.408Z,1015.47
2022-08-22T00:04:00.843Z,1015.42
2022-08-22T00:04:10.254Z,1015.38
2022-08-22T00:04:19.675Z,1015.51
2022-08-22T00:04:29.080Z,1015.48
2022-08-22T00:04:38.524Z,1015.42
2022-08-22T00:04:48.439Z,1015.53
2022-08-22T00:04:57.818Z,1015.47
2022-08-22T00:05:07.236Z,1015.41
2022-08-22T00:05:26.028Z,1015.43
2022-08-22T00:05:35.469Z,1015.46
2022-08-22T00:05:44.886Z,1015.39
2022-08-22T00:05:54.321Z,1015.44
2022-08-22T00:06:03.723Z,1015.42
2022-08-22T00:06:13.128Z,1015.45
2022-08-22T00:06:22.543Z,1015.43
2022-08-22T00:06:31.967Z,1015.43
2022-08-22T00:06:41.455Z,1015.45
2022-08-22T00:06:50.871Z,1015.52
2022-08-22T00:07:00.299Z,1015.43
2022-08-22T00:07:12.921Z,1015.40
2022-08-22T00:07:22.388Z,1015.44
2022-08-22T00:07:31.793Z,1015.46
2022-08-22T00:07:41.223Z,1015.47
2022-08-22T00:07:50.697Z,1015.47
2022-08-22T00:08:00.404Z,1015.43
2022-08-22T00:08:09.583Z,1015.47
2022-08-22T00:08:18.976Z,1015.47
2022-08-22T00:08:28.416Z,1015.45
2022-08-22T00:08:37.833Z,1015.48
2022-08-22T00:08:47.257Z,1015.52
2022-08-22T00:09:06.102Z,1015.48
2022-08-22T00:09:15.503Z,1015.51
2022-08-22T00:09:24.937Z,1015.48
2022-08-22T00:09:34.376Z,1015.49
2022-08-22T00:09:43.779Z,1015.46
2022-08-22T00:09:57.673Z,1015.47
2022-08-22T00:10:07.135Z,1015.45
2022-08-22T00:10:25.298Z,1015.46
2022-08-22T00:10:25.987Z,1015.48
2022-08-22T00:10:35.362Z,1015.45
2022-08-22T00:10:44.782Z,1015.51
2022-08-22T00:10:54.247Z,1015.48
2022-08-22T00:11:03.665Z,1015.48
2022-08-22T00:11:13.165Z,1015.44
2022-08-22T00:11:22.585Z,1015.47
2022-08-22T00:11:31.986Z,1015.46
2022-08-22T00:11:41.449Z,1015.42
2022-08-22T00:11:50.884Z,1015.44
2022-08-22T00:12:00.330Z,1015.44
2022-08-22T00:12:09.754Z,1015.41
2022-08-22T00:12:19.163Z,1015.45
2022-08-22T00:12:28.581Z,1015.45
2022-08-22T00:12:37.987Z,1015.37
2022-08-22T00:12:47.394Z,1015.40
2022-08-22T00:12:56.812Z,1015.41
2022-08-22T00:13:15.670Z,1015.44
2022-08-22T00:13:25.085Z,1015.45
2022-08-22T00:13:34.487Z,1015.40
2022-08-22T00:13:43.915Z,1015.37
2022-08-22T00:14:01.877Z,1015.37
2022-08-22T00:14:02.776Z,1015.35
2022-08-22T00:14:12.219Z,1015.45
2022-08-22T00:14:21.636Z,1015.37
2022-08-22T00:14:31.053Z,1015.40
2022-08-22T00:14:40.461Z,1015.41
2022-08-22T00:14:49.862Z,1015.37
2022-08-22T00:14:59.263Z,1015.32
2022-08-22T00:15:08.685Z,1015.39
2022-08-22T00:15:42.202Z,1015.43
2022-08-22T00:15:42.423Z,1015.35
2022-08-22T00:15:42.848Z,1015.42
2022-08-22T00:15:55.813Z,1015.42
2022-08-22T00:16:05.219Z,1015.41
2022-08-22T00:16:14.630Z,1015.43
2022-08-22T00:16:24.046Z,1015.48
2022-08-22T00:16:33.456Z,1015.41
2022-08-22T00:16:42.890Z,1015.43
2022-08-22T00:16:53.553Z,1015.43
2022-08-22T00:17:01.685Z,1015.35
2022-08-22T00:17:11.143Z,1015.43
2022-08-22T00:17:20.542Z,1015.39
2022-08-22T00:17:30.020Z,1015.37
2022-08-22T00:17:39.450Z,1015.40
2022-08-22T00:17:48.860Z,1015.43
2022-08-22T00:17:58.447Z,1015.36
2022-08-22T00:18:07.703Z,1015.40
2022-08-22T00:18:17.100Z,1015.43
2022-08-22T00:18:35.997Z,1015.41
2022-08-22T00:18:45.414Z,1015.37
2022-08-22T00:18:54.826Z,1015.41
2022-08-22T00:19:04.239Z,1015.36
2022-08-22T00:19:13.667Z,1015.35
2022-08-22T00:19:23.097Z,1015.46
2022-08-22T00:19:32.538Z,1015.43
2022-08-22T00:19:41.963Z,1015.38
2022-08-22T00:19:51.421Z,1015.37
2022-08-22T00:20:00.848Z,1015.40
2022-08-22T00:20:10.280Z,1015.38
2022-08-22T00:20:19.694Z,1015.37
2022-08-22T00:20:29.115Z,1015.35
2022-08-22T00:20:38.548Z,1015.41
2022-08-22T00:20:47.960Z,1015.38
2022-08-22T00:20:57.364Z,1015.42
2022-08-22T00:21:06.806Z,1015.42
2022-08-22T00:21:25.642Z,1015.44
2022-08-22T00:21:35.071Z,1015.41
2022-08-22T00:21:44.480Z,1015.41
2022-08-22T00:21:53.907Z,1015.44
2022-08-22T00:22:03.318Z,1015.35
2022-08-22T00:22:12.759Z,1015.40
2022-08-22T00:22:22.153Z,1015.44
2022-08-22T00:22:31.576Z,1015.39
2022-08-22T00:22:40.969Z,1015.37
2022-08-22T00:22:50.406Z,1015.41
2022-08-22T00:22:59.833Z,1015.38
2022-08-22T00:23:09.274Z,1015.37
2022-08-22T00:23:18.692Z,1015.38
2022-08-22T00:23:28.116Z,1015.35
2022-08-22T00:23:37.523Z,1015.32
2022-08-22T00:23:46.946Z,1015.36
2022-08-22T00:24:05.798Z,1015.30
2022-08-22T00:24:15.205Z,1015.32
2022-08-22T00:24:24.634Z,1015.38
2022-08-22T00:24:34.092Z,1015.35
2022-08-22T00:24:43.510Z,1015.39
2022-08-22T00:24:52.925Z,1015.36
2022-08-22T00:25:02.311Z,1015.37
2022-08-22T00:25:22.803Z,1015.39
2022-08-22T00:25:25.558Z,1015.33
2022-08-22T00:25:30.552Z,1015.40
2022-08-22T00:25:39.952Z,1015.36
2022-08-22T00:25:52.147Z,1015.38
2022-08-22T00:26:01.543Z,1015.33
2022-08-22T00:26:10.946Z,1015.35
2022-08-22T00:26:20.363Z,1015.35
2022-08-22T00:26:29.766Z,1015.35
2022-08-22T00:26:43.317Z,1015.39
2022-08-22T00:26:48.580Z,1015.39
2022-08-22T00:26:57.978Z,1015.31
2022-08-22T00:27:07.388Z,1015.41
2022-08-22T00:27:16.859Z,1015.40
2022-08-22T00:27:35.665Z,1015.32
2022-08-22T00:27:45.250Z,1015.32
2022-08-22T00:27:54.630Z,1015.34
2022-08-22T00:28:03.866Z,1015.35
2022-08-22T00:28:13.282Z,1015.29
2022-08-22T00:28:22.690Z,1015.29
2022-08-22T00:28:32.106Z,1015.33
2022-08-22T00:28:41.544Z,1015.40
2022-08-22T00:28:50.962Z,1015.28
2022-08-22T00:29:00.426Z,1015.35
2022-08-22T00:29:09.838Z,1015.31
2022-08-22T00:29:19.253Z,1015.37
2022-08-22T00:29:28.719Z,1015.28
2022-08-22T00:29:38.058Z,1015.24
2022-08-22T00:29:47.481Z,1015.34
2022-08-22T00:29:56.922Z,1015.30
2022-08-22T00:30:15.730Z,1015.29
2022-08-22T00:30:25.153Z,1015.25
2022-08-22T00:30:34.527Z,1015.27
2022-08-22T00:30:43.946Z,1015.28
2022-08-22T00:30:53.359Z,1015.28
2022-08-22T00:31:02.807Z,1015.32
2022-08-22T00:31:12.225Z,1015.26
2022-08-22T00:31:21.610Z,1015.33
2022-08-22T00:31:31.018Z,1015.36
2022-08-22T00:31:40.422Z,1015.32
2022-08-22T00:31:49.837Z,1015.36
2022-08-22T00:31:59.260Z,1015.29
2022-08-22T00:32:08.692Z,1015.33
2022-08-22T00:32:18.142Z,1015.30
2022-08-22T00:32:27.542Z,1015.31
2022-08-22T00:32:36.945Z,1015.35
2022-08-22T00:32:55.759Z,1015.25
2022-08-22T00:33:05.174Z,1015.28
2022-08-22T00:33:14.566Z,1015.33
2022-08-22T00:33:26.554Z,1015.30
2022-08-22T00:33:36.006Z,1015.31
2022-08-22T00:33:45.416Z,1015.31
2022-08-22T00:33:54.843Z,1015.33
2022-08-22T00:34:04.249Z,1015.34
2022-08-22T00:34:13.642Z,1015.33
2022-08-22T00:34:23.064Z,1015.26
2022-08-22T00:34:32.477Z,1015.26
2022-08-22T00:34:41.871Z,1015.24
2022-08-22T00:34:51.326Z,1015.32
2022-08-22T00:35:00.731Z,1015.28
2022-08-22T00:35:10.166Z,1015.28
2022-08-22T00:35:19.573Z,1015.27
2022-08-22T00:35:29.001Z,1015.28
2022-08-22T00:35:42.940Z,1015.24
2022-08-22T00:35:47.818Z,1015.26
2022-08-22T00:35:57.214Z,1015.24
2022-08-22T00:36:16.052Z,1015.22
2022-08-22T00:36:25.475Z,1015.24
2022-08-22T00:36:34.882Z,1015.32
2022-08-22T00:36:47.797Z,1015.26
2022-08-22T00:36:53.676Z,1015.25
2022-08-22T00:37:03.067Z,1015.26
2022-08-22T00:37:12.486Z,1015.31
2022-08-22T00:37:21.936Z,1015.28
2022-08-22T00:37:31.402Z,1015.29
2022-08-22T00:37:40.815Z,1015.28
2022-08-22T00:37:50.236Z,1015.28
2022-08-22T00:37:59.806Z,1015.25
2022-08-22T00:38:09.107Z,1015.21
2022-08-22T00:38:18.525Z,1015.31
2022-08-22T00:38:27.947Z,1015.27
2022-08-22T00:38:37.324Z,1015.33
2022-08-22T00:38:46.746Z,1015.28
2022-08-22T00:39:05.569Z,1015.34
2022-08-22T00:39:14.989Z,1015.28
2022-08-22T00:39:24.375Z,1015.29
2022-08-22T00:39:33.801Z,1015.27
2022-08-22T00:39:43.261Z,1015.32
2022-08-22T00:39:52.646Z,1015.28
2022-08-22T00:40:03.594Z,1015.31
2022-08-22T00:40:11.469Z,1015.27
2022-08-22T00:40:20.916Z,1015.25
2022-08-22T00:40:30.260Z,1015.31
2022-08-22T00:40:39.662Z,1015.30
2022-08-22T00:40:49.057Z,1015.31
2022-08-22T00:40:58.470Z,1015.29
2022-08-22T00:41:07.924Z,1015.27
2022-08-22T00:41:17.317Z,1015.30
2022-08-22T00:41:26.745Z,1015.33
2022-08-22T00:41:45.579Z,1015.29
2022-08-22T00:41:55.049Z,1015.39
2022-08-22T00:42:04.500Z,1015.24
2022-08-22T00:42:13.900Z,1015.32
2022-08-22T00:42:29.523Z,1015.35
2022-08-22T00:42:35.727Z,1015.35
2022-08-22T00:42:45.114Z,1015.31
2022-08-22T00:42:54.532Z,1015.36
2022-08-22T00:43:03.950Z,1015.32
2022-08-22T00:43:13.385Z,1015.35
2022-08-22T00:43:22.781Z,1015.36
2022-08-22T00:43:32.176Z,1015.28
2022-08-22T00:43:41.599Z,1015.31
2022-08-22T00:43:51.015Z,1015.36
2022-08-22T00:44:00.437Z,1015.34
2022-08-22T00:44:09.862Z,1015.36
2022-08-22T00:44:19.279Z,1015.32
2022-08-22T00:44:28.758Z,1015.35
2022-08-22T00:44:38.160Z,1015.37
2022-08-22T00:44:47.582Z,1015.33
2022-08-22T00:44:57.000Z,1015.35
2022-08-22T00:45:15.815Z,1015.34
2022-08-22T00:45:25.265Z,1015.40
2022-08-22T00:45:34.683Z,1015.35
2022-08-22T00:45:44.115Z,1015.40
2022-08-22T00:45:53.510Z,1015.35
2022-08-22T00:46:02.921Z,1015.32
2022-08-22T00:46:12.330Z,1015.41
2022-08-22T00:46:21.750Z,1015.30
2022-08-22T00:46:31.173Z,1015.26
2022-08-22T00:46:40.556Z,1015.38
2022-08-22T00:46:49.959Z,1015.38
2022-08-22T00:46:59.369Z,1015.44
2022-08-22T00:47:08.788Z,1015.32
2022-08-22T00:47:18.214Z,1015.28
2022-08-22T00:47:27.653Z,1015.37
2022-08-22T00:47:37.067Z,1015.30
2022-08-22T00:47:55.918Z,1015.34
2022-08-22T00:48:05.289Z,1015.43
2022-08-22T00:48:14.887Z,1015.37
2022-08-22T00:48:24.176Z,1015.38
2022-08-22T00:48:33.576Z,1015.33
2022-08-22T00:48:42.971Z,1015.34
2022-08-22T00:48:52.372Z,1015.38
2022-08-22T00:49:01.805Z,1015.40
2022-08-22T00:49:11.210Z,1015.36
2022-08-22T00:49:20.613Z,1015.39
2022-08-22T00:49:30.002Z,1015.44
2022-08-22T00:49:39.433Z,1015.36
2022-08-22T00:49:49.015Z,1015.39
2022-08-22T00:49:58.435Z,1015.36
2022-08-22T00:50:07.852Z,1015.35
2022-08-22T00:50:17.272Z,1015.36
2022-08-22T00:50:36.135Z,1015.46
2022-08-22T00:50:45.527Z,1015.39
2022-08-22T00:50:54.937Z,1015.41
2022-08-22T00:51:04.392Z,1015.40
2022-08-22T00:51:13.803Z,1015.46
2022-08-22T00:51:23.208Z,1015.43
2022-08-22T00:51:32.674Z,1015.40
2022-08-22T00:51:42.150Z,1015.48
2022-08-22T00:51:51.553Z,1015.43
2022-08-22T00:52:00.968Z,1015.46
2022-08-22T00:52:10.377Z,1015.44
2022-08-22T00:52:19.796Z,1015.40
2022-08-22T00:52:29.249Z,1015.40
2022-08-22T00:52:38.627Z,1015.48
2022-08-22T00:52:48.025Z,1015.40
2022-08-22T00:52:57.431Z,1015.40
2022-08-22T00:53:06.846Z,1015.39
2022-08-22T00:53:25.666Z,1015.44
2022-08-22T00:53:35.059Z,1015.45
2022-08-22T00:53:44.484Z,1015.44
2022-08-22T00:53:53.886Z,1015.41
2022-08-22T00:54:03.308Z,1015.49
2022-08-22T00:54:17.823Z,1015.43
2022-08-22T00:54:22.226Z,1015.48
2022-08-22T00:54:31.650Z,1015.53
2022-08-22T00:54:41.057Z,1015.45
2022-08-22T00:54:50.477Z,1015.43
2022-08-22T00:54:59.879Z,1015.47
2022-08-22T00:55:09.278Z,1015.47
2022-08-22T00:55:18.677Z,1015.35
2022-08-22T00:55:28.085Z,1015.47
2022-08-22T00:55:37.483Z,1015.42
2022-08-22T00:55:46.885Z,1015.39
2022-08-22T00:56:05.678Z,1015.37
2022-08-22T00:56:15.087Z,1015.42
2022-08-22T00:56:24.545Z,1015.43
2022-08-22T00:56:33.968Z,1015.42
2022-08-22T00:56:45.996Z,1015.42
2022-08-22T00:56:52.804Z,1015.43
2022-08-22T00:57:02.223Z,1015.39
2022-08-22T00:57:11.636Z,1015.42
2022-08-22T00:57:21.041Z,1015.35
2022-08-22T00:57:30.489Z,1015.47
2022-08-22T00:57:39.925Z,1015.45
2022-08-22T00:57:49.334Z,1015.44
2022-08-22T00:57:59.027Z,1015.50
2022-08-22T00:58:08.212Z,1015.44
2022-08-22T00:58:17.626Z,1015.47
2022-08-22T00:58:27.025Z,1015.42
2022-08-22T00:58:45.829Z,1015.39
2022-08-22T00:58:55.285Z,1015.42
2022-08-22T00:59:10.623Z,1015.44
2022-08-22T00:59:23.283Z,1015.46
2022-08-22T00:59:24.245Z,1015.46
2022-08-22T00:59:32.961Z,1015.47
2022-08-22T00:59:42.386Z,1015.45
2022-08-22T00:59:51.799Z,1015.48
2022-08-22T01:00:01.199Z,1015.45
2022-08-22T01:00:10.764Z,1015.41
2022-08-22T01:00:20.173Z,1015.41
2022-08-22T01:00:29.595Z,1015.46
2022-08-22T01:00:39.004Z,1015.46
2022-08-22T01:00:48.413Z,1015.50
2022-08-22T01:00:57.857Z,1015.43
2022-08-22T01:01:07.319Z,1015.48
2022-08-22T01:01:26.155Z,1015.47
2022-08-22T01:01:35.538Z,1015.45
2022-08-22T01:01:44.879Z,1015.43
2022-08-22T01:01:54.272Z,1015.48
2022-08-22T01:02:03.671Z,1015.49
2022-08-22T01:02:13.084Z,1015.45
2022-08-22T01:02:22.503Z,1015.45
2022-08-22T01:02:33.744Z,1015.43
2022-08-22T01:02:43.195Z,1015.46
2022-08-22T01:02:53.047Z,1015.48
2022-08-22T01:03:02.043Z,1015.45
2022-08-22T01:03:11.496Z,1015.49
2022-08-22T01:03:20.882Z,1015.49
2022-08-22T01:03:30.295Z,1015.45
2022-08-22T01:03:39.738Z,1015.47
2022-08-22T01:03:49.160Z,1015.46
2022-08-22T01:03:58.591Z,1015.44
2022-08-22T01:04:07.992Z,1015.51
2022-08-22T01:04:17.413Z,1015.48
2022-08-22T01:04:26.824Z,1015.50
2022-08-22T01:04:45.699Z,1015.47
2022-08-22T01:04:55.126Z,1015.49
2022-08-22T01:05:04.555Z,1015.50
2022-08-22T01:05:13.982Z,1015.47
2022-08-22T01:05:23.421Z,1015.53
2022-08-22T01:05:32.885Z,1015.56
2022-08-22T01:05:42.300Z,1015.47
2022-08-22T01:05:51.721Z,1015.50
2022-08-22T01:06:01.140Z,1015.46
2022-08-22T01:06:10.580Z,1015.49
2022-08-22T01:06:20.027Z,1015.46
2022-08-22T01:06:29.458Z,1015.41
2022-08-22T01:06:38.855Z,1015.40
2022-08-22T01:06:48.279Z,1015.50
2022-08-22T01:06:57.705Z,1015.43
2022-08-22T01:07:07.128Z,1015.42
2022-08-22T01:07:25.974Z,1015.49
2022-08-22T01:07:35.427Z,1015.42
2022-08-22T01:07:44.837Z,1015.52
2022-08-22T01:07:54.263Z,1015.38
2022-08-22T01:08:03.674Z,1015.50
2022-08-22T01:08:13.097Z,1015.50
2022-08-22T01:08:22.493Z,1015.45
2022-08-22T01:08:31.917Z,1015.48
2022-08-22T01:08:41.339Z,1015.46
2022-08-22T01:08:50.748Z,1015.44
2022-08-22T01:09:00.208Z,1015.42
2022-08-22T01:09:09.629Z,1015.37
2022-08-22T01:09:19.073Z,1015.40
2022-08-22T01:09:28.485Z,1015.45
2022-08-22T01:09:37.916Z,1015.49
2022-08-22T01:09:47.333Z,1015.45
2022-08-22T01:09:56.760Z,1015.51
2022-08-22T01:10:15.616Z,1015.54
2022-08-22T01:10:25.039Z,1015.39
2022-08-22T01:10:34.419Z,1015.45
2022-08-22T01:10:43.821Z,1015.44
2022-08-22T01:10:53.252Z,1015.47
2022-08-22T01:11:02.735Z,1015.43
2022-08-22T01:11:12.156Z,1015.49
2022-08-22T01:11:21.570Z,1015.46
2022-08-22T01:11:30.974Z,1015.43
2022-08-22T01:11:40.411Z,1015.44
2022-08-22T01:11:49.811Z,1015.43
2022-08-22T01:11:59.232Z,1015.44
2022-08-22T01:12:08.645Z,1015.51
2022-08-22T01:12:18.043Z,1015.46
2022-08-22T01:12:27.465Z,1015.44
2022-08-22T01:12:36.903Z,1015.49
2022-08-22T01:12:55.782Z,1015.48
2022-08-22T01:13:05.249Z,1015.44
2022-08-22T01:13:14.643Z,1015.43
2022-08-22T01:13:24.059Z,1015.46
2022-08-22T01:13:33.488Z,1015.43
2022-08-22T01:13:42.891Z,1015.41
2022-08-22T01:13:52.307Z,1015.46
2022-08-22T01:14:01.756Z,1015.48
2022-08-22T01:14:11.175Z,1015.47
2022-08-22T01:14:20.649Z,1015.50
2022-08-22T01:14:34.398Z,1015.48
2022-08-22T01:14:39.456Z,1015.48
2022-08-22T01:14:48.881Z,1015.52
2022-08-22T01:14:58.312Z,1015.47
2022-08-22T01:15:07.754Z,1015.49
2022-08-22T01:15:17.152Z,1015.45
2022-08-22T01:15:36.055Z,1015.50
2022-08-22T01:15:45.483Z,1015.46
2022-08-22T01:15:54.896Z,1015.48
2022-08-22T01:16:04.299Z,1015.48
2022-08-22T01:16:13.740Z,1015.46
2022-08-22T01:16:23.151Z,1015.44
2022-08-22T01:16:32.569Z,1015.47
2022-08-22T01:16:41.976Z,1015.52
2022-08-22T01:16:51.413Z,1015.48
2022-08-22T01:17:00.861Z,1015.49
2022-08-22T01:17:10.411Z,1015.53
2022-08-22T01:17:19.821Z,1015.44
2022-08-22T01:17:29.246Z,1015.55
2022-08-22T01:17:38.691Z,1015.49
2022-08-22T01:17:48.121Z,1015.50
2022-08-22T01:17:57.693Z,1015.46
2022-08-22T01:18:06.949Z,1015.48
2022-08-22T01:18:25.793Z,1015.48
2022-08-22T01:18:35.242Z,1015.47
2022-08-22T01:18:44.662Z,1015.56
2022-08-22T01:18:54.063Z,1015.44
2022-08-22T01:19:03.481Z,1015.55
2022-08-22T01:19:12.905Z,1015.53
2022-08-22T01:19:22.316Z,1015.47
2022-08-22T01:19:31.725Z,1015.52
2022-08-22T01:19:41.130Z,1015.47
2022-08-22T01:19:50.550Z,1015.49
2022-08-22T01:19:59.968Z,1015.49
2022-08-22T01:20:09.428Z,1015.47
2022-08-22T01:20:18.839Z,1015.50
2022-08-22T01:20:28.233Z,1015.53
2022-08-22T01:20:37.630Z,1015.52
2022-08-22T01:20:47.036Z,1015.47
2022-08-22T01:21:05.884Z,1015.44
2022-08-22T01:21:15.288Z,1015.54
2022-08-22T01:21:24.710Z,1015.51
2022-08-22T01:21:34.199Z,1015.47
2022-08-22T01:21:43.611Z,1015.49
2022-08-22T01:21:53.041Z,1015.54
2022-08-22T01:22:02.467Z,1015.52
2022-08-22T01:22:11.870Z,1015.50
2022-08-22T01:22:21.336Z,1015.49
2022-08-22T01:22:30.793Z,1015.48
2022-08-22T01:22:40.243Z,1015.48
2022-08-22T01:22:49.648Z,1015.48
2022-08-22T01:22:59.067Z,1015.48
2022-08-22T01:23:08.499Z,1015.47
2022-08-22T01:23:17.897Z,1015.53
2022-08-22T01:23:27.313Z,1015.51
2022-08-22T01:23:46.143Z,1015.56
2022-08-22T01:23:55.574Z,1015.50
2022-08-22T01:24:04.987Z,1015.48
2022-08-22T01:24:14.387Z,1015.48
2022-08-22T01:24:24.142Z,1015.44
2022-08-22T01:24:33.322Z,1015.41
2022-08-22T01:24:42.744Z,1015.45
2022-08-22T01:24:52.162Z,1015.50
2022-08-22T01:25:01.572Z,1015.54
2022-08-22T01:25:11.014Z,1015.53
2022-08-22T01:25:22.511Z,1015.47
2022-08-22T01:25:29.857Z,1015.44
2022-08-22T01:25:39.271Z,1015.51
2022-08-22T01:25:48.700Z,1015.53
2022-08-22T01:25:58.111Z,1015.52
2022-08-22T01:26:07.495Z,1015.49
2022-08-22T01:26:16.913Z,1015.48
2022-08-22T01:26:35.764Z,1015.41
2022-08-22T01:26:45.237Z,1015.48
2022-08-22T01:26:54.645Z,1015.50
2022-08-22T01:27:04.083Z,1015.50
2022-08-22T01:27:13.474Z,1015.46
2022-08-22T01:27:22.883Z,1015.49
2022-08-22T01:27:32.289Z,1015.52
2022-08-22T01:27:41.742Z,1015.51
2022-08-22T01:27:51.172Z,1015.53
2022-08-22T01:28:00.640Z,1015.47
2022-08-22T01:28:10.042Z,1015.47
2022-08-22T01:28:19.449Z,1015.51
2022-08-22T01:28:28.877Z,1015.46
2022-08-22T01:28:38.297Z,1015.47
2022-08-22T01:28:47.717Z,1015.51
2022-08-22T01:28:59.908Z,1015.52
2022-08-22T01:29:10.368Z,1015.48
2022-08-22T01:29:18.743Z,1015.54
2022-08-22T01:29:28.723Z,1015.52
2022-08-22T01:29:37.583Z,1015.49
2022-08-22T01:29:46.986Z,1015.49
2022-08-22T01:30:05.829Z,1015.50
2022-08-22T01:30:15.259Z,1015.50
2022-08-22T01:30:24.667Z,1015.53
2022-08-22T01:30:34.104Z,1015.46
2022-08-22T01:30:43.517Z,1015.44
2022-08-22T01:30:52.922Z,1015.44
2022-08-22T01:31:02.349Z,1015.49
2022-08-22T01:31:11.795Z,1015.43
2022-08-22T01:31:21.207Z,1015.54
2022-08-22T01:31:30.635Z,1015.48
2022-08-22T01:31:40.049Z,1015.49
2022-08-22T01:31:49.530Z,1015.51
2022-08-22T01:31:58.966Z,1015.50
2022-08-22T01:32:08.363Z,1015.53
2022-08-22T01:32:17.780Z,1015.48
2022-08-22T01:32:27.196Z,1015.48
2022-08-22T01:32:46.013Z,1015.48
2022-08-22T01:32:57.047Z,1015.47
2022-08-22T01:33:04.816Z,1015.45
2022-08-22T01:33:14.243Z,1015.50
2022-08-22T01:33:23.651Z,1015.48
2022-08-22T01:33:33.115Z,1015.53
2022-08-22T01:33:42.519Z,1015.53
2022-08-22T01:33:51.944Z,1015.48
2022-08-22T01:34:01.445Z,1015.51
2022-08-22T01:34:13.053Z,1015.46
2022-08-22T01:34:20.277Z,1015.44
2022-08-22T01:34:29.696Z,1015.50
2022-08-22T01:34:39.132Z,1015.47
2022-08-22T01:34:48.549Z,1015.46
2022-08-22T01:34:57.983Z,1015.52
2022-08-22T01:35:07.469Z,1015.51
2022-08-22T01:35:16.881Z,1015.50
2022-08-22T01:35:35.712Z,1015.44
2022-08-22T01:35:45.172Z,1015.50
2022-08-22T01:35:54.583Z,1015.46
2022-08-22T01:36:03.993Z,1015.47
2022-08-22T01:36:13.405Z,1015.49
2022-08-22T01:36:22.820Z,1015.54
2022-08-22T01:36:32.239Z,1015.49
2022-08-22T01:36:41.636Z,1015.43
2022-08-22T01:36:51.046Z,1015.53
2022-08-22T01:37:00.452Z,1015.45
2022-08-22T01:37:09.903Z,1015.45
2022-08-22T01:37:19.307Z,1015.53
2022-08-22T01:37:28.730Z,1015.47
2022-08-22T01:37:43.471Z,1015.52
2022-08-22T01:37:47.603Z,1015.53
2022-08-22T01:37:57.209Z,1015.53
2022-08-22T01:38:15.843Z,1015.47
2022-08-22T01:38:25.270Z,1015.50
2022-08-22T01:38:34.718Z,1015.50
2022-08-22T01:38:44.133Z,1015.55
2022-08-22T01:38:53.568Z,1015.46
2022-08-22T01:39:02.985Z,1015.54
2022-08-22T01:39:12.390Z,1015.51
2022-08-22T01:39:21.818Z,1015.53
2022-08-22T01:39:31.215Z,1015.55
2022-08-22T01:39:40.674Z,1015.49
2022-08-22T01:39:50.158Z,1015.58
2022-08-22T01:39:59.560Z,1015.55
2022-08-22T01:40:08.944Z,1015.50
2022-08-22T01:40:18.383Z,1015.52
2022-08-22T01:40:27.802Z,1015.52
2022-08-22T01:40:37.222Z,1015.52
2022-08-22T01:40:56.091Z,1015.53
2022-08-22T01:41:05.511Z,1015.53
2022-08-22T01:41:14.939Z,1015.55
2022-08-22T01:41:24.339Z,1015.50
2022-08-22T01:41:33.814Z,1015.49
2022-08-22T01:41:43.229Z,1015.52
2022-08-22T01:41:52.659Z,1015.52
2022-08-22T01:42:02.085Z,1015.51
2022-08-22T01:42:11.559Z,1015.46
2022-08-22T01:42:20.961Z,1015.52
2022-08-22T01:42:30.404Z,1015.50
2022-08-22T01:42:39.830Z,1015.54
2022-08-22T01:42:49.277Z,1015.47
2022-08-22T01:42:58.698Z,1015.55
2022-08-22T01:43:08.144Z,1015.49
2022-08-22T01:43:17.541Z,1015.52
2022-08-22T01:43:58.596Z,1015.52
2022-08-22T01:43:59.150Z,1015.52
2022-08-22T01:44:00.713Z,1015.58
2022-08-22T01:44:04.627Z,1015.59
2022-08-22T01:44:14.106Z,1015.59
2022-08-22T01:44:23.497Z,1015.53
2022-08-22T01:44:32.960Z,1015.59
2022-08-22T01:44:42.369Z,1015.51
2022-08-22T01:44:51.807Z,1015.57
2022-08-22T01:45:01.227Z,1015.53
2022-08-22T01:45:10.642Z,1015.58
2022-08-22T01:45:20.091Z,1015.48
2022-08-22T01:45:29.491Z,1015.53
2022-08-22T01:45:38.932Z,1015.53
2022-08-22T01:45:48.346Z,1015.52
2022-08-22T01:45:57.806Z,1015.52
2022-08-22T01:46:07.207Z,1015.52
2022-08-22T01:46:26.062Z,1015.50
2022-08-22T01:46:35.519Z,1015.50
2022-08-22T01:46:44.933Z,1015.49
2022-08-22T01:46:54.351Z,1015.54
2022-08-22T01:47:03.825Z,1015.50
2022-08-22T01:47:13.229Z,1015.57
2022-08-22T01:47:22.693Z,1015.52
2022-08-22T01:47:37.390Z,1015.55
2022-08-22T01:47:41.535Z,1015.55
2022-08-22T01:47:54.181Z,1015.49
2022-08-22T01:48:01.001Z,1015.53
2022-08-22T01:48:10.376Z,1015.56
2022-08-22T01:48:19.784Z,1015.49
2022-08-22T01:48:29.220Z,1015.53
2022-08-22T01:48:38.640Z,1015.50
2022-08-22T01:48:48.060Z,1015.52
2022-08-22T01:48:57.475Z,1015.51
2022-08-22T01:49:06.912Z,1015.53
2022-08-22T01:49:25.744Z,1015.51
2022-08-22T01:49:35.170Z,1015.53
2022-08-22T01:49:44.570Z,1015.48
2022-08-22T01:49:53.993Z,1015.51
2022-08-22T01:50:03.416Z,1015.56
2022-08-22T01:50:12.847Z,1015.50
2022-08-22T01:50:22.296Z,1015.47
2022-08-22T01:50:31.714Z,1015.50
2022-08-22T01:50:41.135Z,1015.49
2022-08-22T01:50:50.562Z,1015.54
2022-08-22T01:50:59.981Z,1015.49
2022-08-22T01:51:09.439Z,1015.53
2022-08-22T01:51:18.873Z,1015.54
2022-08-22T01:51:28.315Z,1015.58
2022-08-22T01:51:37.935Z,1015.51
2022-08-22T01:51:47.348Z,1015.56
2022-08-22T01:51:56.779Z,1015.49
2022-08-22T01:52:15.619Z,1015.52
2022-08-22T01:52:25.075Z,1015.55
2022-08-22T01:52:34.492Z,1015.57
2022-08-22T01:52:43.940Z,1015.55
2022-08-22T01:52:53.389Z,1015.52
2022-08-22T01:53:02.801Z,1015.52
2022-08-22T01:53:12.244Z,1015.52
2022-08-22T01:53:21.660Z,1015.57
2022-08-22T01:53:31.090Z,1015.58
2022-08-22T01:53:40.503Z,1015.58
2022-08-22T01:53:49.922Z,1015.56
2022-08-22T01:53:59.374Z,1015.52
2022-08-22T01:54:08.793Z,1015.61
2022-08-22T01:54:18.231Z,1015.57
2022-08-22T01:54:27.665Z,1015.56
2022-08-22T01:54:37.075Z,1015.58
2022-08-22T01:54:55.909Z,1015.58
2022-08-22T01:55:05.325Z,1015.54
2022-08-22T01:55:14.795Z,1015.60
2022-08-22T01:55:24.261Z,1015.59